Lexington, KY (40575)

12:28 PM EST on January 30, 2015 (GMT -0500)
Garden Meadows | Change Station
CLOSE
Current Station
Personal Weather Station
Location: Lexington, KY
Elevation: 965 ft
Nearby Weather Stations

Elev 965 ft 38.10 °N, 84.53 °W | Updated 6 seconds ago

Overcast
Overcast
36.1 °F
Feels Like 31 °F
N
6.8
Wind Variable Wind from SW
Gusts 8.9 mph

Today
High -- | Low -- °F
--% Chance of Precip.
Yesterday
High -- | Low -- °F
Precip. -- in
7:44 AM 5:58 PM
Waxing Gibbous, 84% visible
Pressure 30.46 in
Visibility 10.0 miles
Clouds Mostly Cloudy 3400 ft
Overcast 4200 ft
Windchill 31 °F
Dew Point 21 °F
Humidity 53%
Rainfall 0.00 in
Snow Depth Not available.
UV 1 out of 12
Pollen .10 out of 12
Air Quality Not available.
Flu Activity Not available.
METAR KLEX 301654Z 35017G20KT 10SM BKN034 OVC042 00/M08 A3044 RMK AO2 SLP315 T00001078 $

More Conditions Fewer Conditions

Pressure 30.46 in
Visibility 10.0 miles
Clouds Mostly Cloudy 3400 ft
Overcast 4200 ft
Windchill 31 °F
Dew Point 21 °F
Humidity 53%
Rainfall 0.00 in
Snow Depth Not available.
UV 1 out of 12
Pollen .10 out of 12
Air Quality Not available.
Flu Activity Not available.
METAR KLEX 301654Z 35017G20KT 10SM BKN034 OVC042 00/M08 A3044 RMK AO2 SLP315 T00001078 $

More Conditions Fewer Conditions

10-Day Weather Forecast

Almanac

Astronomy

Jan. 30, 2015 Rise Set
Actual Time
Civil Twilight
Nautical Twilight
Astronomical Twilight
Moon
Length of Visible Light
Length of Day
Tomorrow will be .
, % of the Moon is Illuminated

Today's Extremes

State Highs State Lows

Community

WunderPhotos

Upload Photos

1,791,826 photos uploaded!

WunderBlogs® & News

Nearby

Air Quality

  Air Quality AQ Index Pollutant
Not available.

Snow Depth

Station Depth Elevation

Earthquake Activity

City Distance Mag. Time & Date
Minimum magnitude displayed is 2.5.

Coastal Water Temperatures

Place Temperature

Nearby Weather Stations